createdAt,value
2018-02-05T00:00:47.214Z,11.00
2018-02-05T00:03:14.763Z,13.53
2018-02-05T00:05:42.363Z,11.90
2018-02-05T00:08:10.308Z,12.27
2018-02-05T00:10:37.854Z,10.97
2018-02-05T00:13:05.527Z,11.53
2018-02-05T00:15:33.133Z,11.27
2018-02-05T00:18:00.712Z,10.63
2018-02-05T00:20:29.116Z,10.93
2018-02-05T00:22:56.665Z,11.23
2018-02-05T00:25:24.810Z,10.53
2018-02-05T00:27:52.420Z,9.97
2018-02-05T00:30:20.075Z,10.57
2018-02-05T00:32:48.549Z,9.20
2018-02-05T00:35:16.087Z,9.33
2018-02-05T00:37:44.099Z,9.47
2018-02-05T00:40:11.639Z,8.60
2018-02-05T00:42:39.244Z,9.63
2018-02-05T00:45:06.868Z,9.33
2018-02-05T00:47:34.438Z,9.23
2018-02-05T00:50:02.027Z,8.70
2018-02-05T00:52:30.093Z,9.40
2018-02-05T00:54:57.707Z,9.00
2018-02-05T00:57:25.308Z,8.50
2018-02-05T00:59:53.410Z,9.57
2018-02-05T01:02:21.012Z,9.20
2018-02-05T01:04:48.574Z,9.20
2018-02-05T01:07:16.194Z,8.07
2018-02-05T01:09:43.735Z,9.27
2018-02-05T01:12:11.316Z,9.00
2018-02-05T01:14:39.359Z,8.40
2018-02-05T01:17:06.955Z,8.57
2018-02-05T01:19:34.534Z,8.90
2018-02-05T01:22:02.432Z,8.83
2018-02-05T01:24:30.014Z,9.40
2018-02-05T01:26:57.986Z,9.57
2018-02-05T01:29:25.582Z,9.60
2018-02-05T01:31:53.176Z,9.60
2018-02-05T01:34:20.775Z,9.30
2018-02-05T01:36:48.314Z,9.80
2018-02-05T01:39:15.895Z,9.00
2018-02-05T01:41:43.457Z,9.80
2018-02-05T01:44:11.058Z,10.50
2018-02-05T01:46:38.650Z,8.63
2018-02-05T01:49:06.243Z,10.00
2018-02-05T01:51:33.791Z,9.10
2018-02-05T01:54:01.858Z,9.83
2018-02-05T01:56:29.799Z,9.57
2018-02-05T01:58:57.385Z,9.77
2018-02-05T02:01:24.934Z,9.83
2018-02-05T02:03:53.040Z,9.70
2018-02-05T02:06:21.654Z,9.60
2018-02-05T02:08:49.223Z,9.13
2018-02-05T02:11:16.804Z,8.87
2018-02-05T02:13:44.391Z,9.57
2018-02-05T02:16:11.926Z,8.83
2018-02-05T02:18:39.508Z,8.90
2018-02-05T02:21:07.046Z,9.47
2018-02-05T02:23:34.643Z,9.40
2018-02-05T02:26:02.204Z,9.17
2018-02-05T02:28:29.774Z,9.57
2018-02-05T02:30:58.017Z,9.03
2018-02-05T02:33:25.612Z,9.03
2018-02-05T02:35:53.208Z,8.83
2018-02-05T02:38:20.888Z,9.10
2018-02-05T02:40:48.469Z,9.20
2018-02-05T02:43:16.063Z,8.53
2018-02-05T02:45:43.622Z,9.47
2018-02-05T02:48:11.626Z,8.37
2018-02-05T02:50:39.227Z,9.10
2018-02-05T02:53:07.184Z,8.50
2018-02-05T02:55:34.782Z,8.87
2018-02-05T02:58:02.764Z,9.10
2018-02-05T03:00:30.376Z,9.33
2018-02-05T03:02:57.974Z,9.70
2018-02-05T03:05:25.903Z,10.03
2018-02-05T03:07:53.850Z,10.93
2018-02-05T03:10:21.435Z,10.73
2018-02-05T03:12:48.988Z,11.13
2018-02-05T03:15:16.565Z,10.70
2018-02-05T03:17:44.176Z,9.70
2018-02-05T03:20:11.760Z,11.20
2018-02-05T03:22:39.370Z,9.73
2018-02-05T03:25:07.206Z,9.73
2018-02-05T03:27:34.770Z,10.20
2018-02-05T03:30:02.375Z,10.40
2018-02-05T03:32:29.937Z,11.30
2018-02-05T03:34:57.518Z,10.07
2018-02-05T03:37:25.295Z,9.27
2018-02-05T03:39:52.888Z,9.80
2018-02-05T03:42:20.435Z,10.20
2018-02-05T03:44:48.024Z,9.97
2018-02-05T03:47:15.578Z,9.53
2018-02-05T03:49:43.495Z,10.57
2018-02-05T03:52:11.048Z,9.83
2018-02-05T03:54:38.771Z,9.50
2018-02-05T03:57:06.340Z,9.30
2018-02-05T03:59:33.893Z,9.43
2018-02-05T04:02:01.491Z,9.53
2018-02-05T04:04:29.634Z,9.43
2018-02-05T04:07:02.778Z,9.50
2018-02-05T04:09:30.333Z,10.27
2018-02-05T04:11:57.883Z,9.53
2018-02-05T04:14:26.020Z,10.07
2018-02-05T04:16:53.985Z,9.57
2018-02-05T04:19:21.591Z,10.33
2018-02-05T04:21:49.133Z,10.33
2018-02-05T04:24:16.698Z,10.30
2018-02-05T04:26:44.307Z,10.03
2018-02-05T04:29:11.891Z,9.77
2018-02-05T04:31:40.220Z,9.40
2018-02-05T04:34:07.780Z,10.47
2018-02-05T04:36:35.374Z,10.73
2018-02-05T04:39:02.937Z,9.27
2018-02-05T04:41:30.496Z,10.30
2018-02-05T04:43:58.083Z,9.83
2018-02-05T04:46:25.634Z,10.10
2018-02-05T04:48:53.218Z,10.03
2018-02-05T04:51:20.806Z,10.27
2018-02-05T04:53:48.360Z,10.03
2018-02-05T04:56:15.968Z,10.23
2018-02-05T04:58:44.101Z,10.50
2018-02-05T05:01:12.330Z,10.10
2018-02-05T05:03:39.934Z,10.83
2018-02-05T05:06:07.494Z,10.37
2018-02-05T05:08:35.096Z,10.10
2018-02-05T05:11:02.641Z,11.17
2018-02-05T05:13:30.232Z,10.63
2018-02-05T05:15:58.108Z,11.90
2018-02-05T05:18:25.698Z,11.43
2018-02-05T05:20:53.276Z,11.73
2018-02-05T05:23:20.858Z,11.97
2018-02-05T05:25:48.415Z,11.93
2018-02-05T05:28:16.390Z,12.30
2018-02-05T05:30:43.940Z,13.10
2018-02-05T05:33:11.535Z,15.43
2018-02-05T05:35:39.915Z,14.20
2018-02-05T05:38:07.491Z,14.13
2018-02-05T05:40:35.051Z,13.03
2018-02-05T05:43:02.656Z,13.77
2018-02-05T05:45:30.202Z,15.40
2018-02-05T05:47:57.758Z,19.35
2018-02-05T05:50:26.717Z,16.83
2018-02-05T05:52:54.270Z,18.43
2018-02-05T05:55:21.950Z,19.75
2018-02-05T05:57:49.552Z,18.07
2018-02-05T06:00:17.153Z,16.37
2018-02-05T06:02:44.776Z,15.47
2018-02-05T06:05:12.380Z,17.00
2018-02-05T06:07:39.948Z,18.90
2018-02-05T06:10:07.559Z,20.20
2018-02-05T06:12:35.157Z,18.20
2018-02-05T06:15:02.773Z,15.77
2018-02-05T06:17:31.134Z,16.97
2018-02-05T06:19:58.926Z,16.87
2018-02-05T06:22:26.511Z,16.25
2018-02-05T06:24:54.072Z,15.27
2018-02-05T06:27:21.764Z,14.43
2018-02-05T06:29:49.849Z,13.77
2018-02-05T06:32:17.449Z,14.73
2018-02-05T06:34:45.029Z,13.07
2018-02-05T06:37:12.597Z,13.13
2018-02-05T06:39:40.203Z,15.15
2018-02-05T06:42:07.751Z,13.77
2018-02-05T06:44:35.358Z,15.68
2018-02-05T06:47:02.985Z,13.97
2018-02-05T06:49:31.054Z,14.30
2018-02-05T06:52:10.604Z,14.87
2018-02-05T06:54:49.842Z,18.20
2018-02-05T06:57:17.416Z,21.37
2018-02-05T06:59:45.268Z,20.73
2018-02-05T07:02:12.860Z,28.52
2018-02-05T07:04:40.407Z,27.97
2018-02-05T07:07:08.248Z,22.65
2018-02-05T07:09:35.816Z,18.83
2018-02-05T07:12:03.776Z,17.23
2018-02-05T07:14:31.401Z,18.60
2018-02-05T07:16:58.962Z,18.87
2018-02-05T07:19:26.915Z,18.40
2018-02-05T07:21:54.647Z,17.50
2018-02-05T07:24:23.206Z,18.27
2018-02-05T07:26:51.157Z,15.50
2018-02-05T07:29:18.759Z,16.92
2018-02-05T07:31:47.059Z,14.43
2018-02-05T07:34:16.436Z,15.05
2018-02-05T07:36:45.022Z,14.50
2018-02-05T07:39:13.376Z,14.77
2018-02-05T07:41:40.966Z,16.10
2018-02-05T07:44:08.574Z,15.03
2018-02-05T07:46:37.139Z,13.63
2018-02-05T07:49:04.860Z,15.13
2018-02-05T07:51:33.169Z,12.53
2018-02-05T07:54:00.766Z,13.48
2018-02-05T07:56:28.762Z,13.70
2018-02-05T07:58:56.798Z,11.67
2018-02-05T08:01:24.581Z,12.40
2018-02-05T08:03:52.305Z,11.73
2018-02-05T08:06:20.477Z,11.27
2018-02-05T08:08:48.340Z,11.93
2018-02-05T08:11:15.901Z,11.60
2018-02-05T08:13:43.462Z,12.35
2018-02-05T08:16:11.059Z,10.43
2018-02-05T08:18:38.642Z,11.53
2018-02-05T08:21:07.027Z,11.37
2018-02-05T08:23:34.584Z,11.90
2018-02-05T08:26:02.191Z,10.73
2018-02-05T08:28:29.790Z,10.95
2018-02-05T08:30:57.749Z,10.63
2018-02-05T08:33:25.356Z,11.48
2018-02-05T08:35:53.580Z,10.17
2018-02-05T08:38:21.148Z,10.63
2018-02-05T08:40:48.805Z,9.40
2018-02-05T08:43:16.572Z,10.57
2018-02-05T08:45:44.605Z,10.33
2018-02-05T08:48:12.151Z,10.33
2018-02-05T08:50:40.358Z,10.00
2018-02-05T08:53:07.985Z,8.50
2018-02-05T08:55:37.074Z,10.10
2018-02-05T08:58:05.442Z,10.25
2018-02-05T09:00:33.235Z,9.70
2018-02-05T09:03:01.711Z,9.55
2018-02-05T09:05:30.250Z,8.70
2018-02-05T09:07:58.871Z,9.40
2018-02-05T09:10:27.823Z,9.87
2018-02-05T09:12:55.921Z,10.30
2018-02-05T09:15:23.505Z,12.60
2018-02-05T09:17:51.365Z,10.93
2018-02-05T09:20:19.227Z,12.17
2018-02-05T09:22:46.804Z,13.27
2018-02-05T09:25:14.775Z,14.37
2018-02-05T09:27:43.421Z,12.23
2018-02-05T09:30:11.015Z,11.67
2018-02-05T09:32:38.781Z,13.35
2018-02-05T09:35:07.967Z,12.40
2018-02-05T09:37:35.564Z,13.47
2018-02-05T09:40:03.389Z,12.32
2018-02-05T09:42:31.034Z,12.93
2018-02-05T09:44:58.634Z,13.20
2018-02-05T09:47:26.371Z,12.87
2018-02-05T09:49:54.271Z,11.73
2018-02-05T09:52:21.937Z,12.30
2018-02-05T09:54:49.699Z,12.50
2018-02-05T09:57:17.448Z,12.53
2018-02-05T09:59:45.229Z,13.48
2018-02-05T10:02:13.744Z,12.47
2018-02-05T10:04:41.411Z,12.80
2018-02-05T10:07:09.128Z,13.17
2018-02-05T10:09:37.201Z,12.93
2018-02-05T10:12:04.773Z,12.70
2018-02-05T10:14:32.383Z,13.70
2018-02-05T10:17:00.176Z,13.83
2018-02-05T10:19:28.399Z,13.65
2018-02-05T10:21:56.005Z,14.13
2018-02-05T10:24:23.604Z,13.20
2018-02-05T10:26:51.159Z,12.80
2018-02-05T10:29:19.022Z,12.30
2018-02-05T10:31:46.576Z,11.50
2018-02-05T10:34:14.866Z,11.95
2018-02-05T10:36:42.758Z,11.17
2018-02-05T10:39:10.367Z,12.27
2018-02-05T10:41:38.557Z,12.03
2018-02-05T10:44:06.199Z,12.85
2018-02-05T10:46:33.760Z,11.33
2018-02-05T10:49:01.413Z,11.48
2018-02-05T10:51:29.627Z,12.27
2018-02-05T10:53:59.132Z,12.20
2018-02-05T10:56:26.834Z,12.23
2018-02-05T10:58:54.875Z,10.57
2018-02-05T11:01:22.780Z,11.57
2018-02-05T11:03:50.392Z,11.03
2018-02-05T11:06:18.664Z,10.60
2018-02-05T11:08:46.243Z,9.80
2018-02-05T11:11:13.839Z,10.10
2018-02-05T11:13:42.744Z,9.97
2018-02-05T11:16:10.291Z,9.43
2018-02-05T11:18:38.726Z,10.13
2018-02-05T11:21:06.336Z,10.10
2018-02-05T11:23:33.949Z,9.77
2018-02-05T11:26:02.187Z,9.00
2018-02-05T11:28:29.990Z,9.90
2018-02-05T11:30:57.564Z,10.17
2018-02-05T11:33:25.755Z,9.37
2018-02-05T11:35:54.220Z,9.10
2018-02-05T11:38:22.102Z,9.90
2018-02-05T11:40:49.656Z,9.97
2018-02-05T11:43:17.421Z,8.37
2018-02-05T11:45:45.012Z,9.40
2018-02-05T11:48:12.676Z,9.45
2018-02-05T11:50:40.268Z,9.10
2018-02-05T11:53:08.138Z,9.27
2018-02-05T11:55:36.070Z,8.13
2018-02-05T11:58:03.721Z,8.97
2018-02-05T12:00:31.570Z,9.25
2018-02-05T12:03:00.012Z,9.10
2018-02-05T12:05:28.075Z,10.27
2018-02-05T12:07:56.067Z,9.30
2018-02-05T12:10:24.113Z,8.90
2018-02-05T12:12:52.507Z,8.97
2018-02-05T12:15:20.106Z,9.03
2018-02-05T12:17:48.359Z,9.77
2018-02-05T12:20:16.213Z,8.43
2018-02-05T12:22:44.763Z,8.97
2018-02-05T12:25:12.614Z,9.35
2018-02-05T12:27:40.900Z,9.67
2018-02-05T12:30:09.401Z,8.20
2018-02-05T12:32:37.001Z,10.30
2018-02-05T12:35:04.617Z,9.50
2018-02-05T12:37:32.232Z,9.70
2018-02-05T12:39:59.799Z,8.70
2018-02-05T12:42:27.716Z,10.05
2018-02-05T12:44:55.340Z,9.63
2018-02-05T12:47:22.953Z,10.27
2018-02-05T12:49:50.528Z,9.80
2018-02-05T12:52:18.503Z,9.53
2018-02-05T12:54:46.913Z,9.13
2018-02-05T12:57:15.237Z,9.68
2018-02-05T12:59:48.368Z,9.77
2018-02-05T13:02:16.315Z,10.50
2018-02-05T13:07:49.715Z,10.80
2018-02-05T13:10:18.259Z,9.23
2018-02-05T13:12:46.393Z,9.20
2018-02-05T13:15:14.004Z,10.27
2018-02-05T13:17:41.646Z,9.23
2018-02-05T13:20:09.992Z,10.10
2018-02-05T13:22:39.473Z,9.93
2018-02-05T13:25:08.256Z,9.50
2018-02-05T13:27:35.822Z,10.63
2018-02-05T13:30:03.438Z,11.13
2018-02-05T13:32:32.914Z,9.90
2018-02-05T13:35:00.592Z,11.77
2018-02-05T13:37:28.305Z,9.43
2018-02-05T13:39:55.917Z,9.43
2018-02-05T13:42:23.505Z,9.73
2018-02-05T13:44:51.168Z,10.40
2018-02-05T13:47:18.774Z,10.13
2018-02-05T13:49:46.322Z,10.53
2018-02-05T13:52:13.982Z,11.05
2018-02-05T13:54:41.592Z,10.10
2018-02-05T13:57:09.794Z,10.75
2018-02-05T13:59:37.378Z,10.10
2018-02-05T14:02:04.972Z,9.50
2018-02-05T14:04:32.530Z,9.70
2018-02-05T14:07:00.122Z,9.13
2018-02-05T14:09:28.420Z,10.00
2018-02-05T14:11:56.024Z,11.38
2018-02-05T14:14:23.613Z,11.90
2018-02-05T14:16:51.223Z,9.93
2018-02-05T14:19:19.971Z,11.60
2018-02-05T14:21:47.588Z,9.93
2018-02-05T14:24:15.777Z,11.57
2018-02-05T14:26:44.500Z,11.57
2018-02-05T14:29:12.152Z,12.30
2018-02-05T14:31:40.716Z,11.00
2018-02-05T14:34:09.199Z,12.43
2018-02-05T14:36:37.805Z,11.70
2018-02-05T14:39:05.434Z,12.60
2018-02-05T14:41:33.041Z,12.20
2018-02-05T14:44:00.592Z,11.37
2018-02-05T14:46:28.199Z,12.02
2018-02-05T14:48:57.096Z,10.87
2018-02-05T14:51:24.686Z,11.67
2018-02-05T14:53:52.239Z,12.03
2018-02-05T14:56:19.848Z,11.27
2018-02-05T14:58:47.398Z,11.27
2018-02-05T15:01:15.243Z,11.30
2018-02-05T15:03:43.023Z,11.57
2018-02-05T15:06:10.964Z,11.40
2018-02-05T15:08:38.569Z,11.63
2018-02-05T15:11:06.426Z,11.80
2018-02-05T15:13:33.984Z,13.87
2018-02-05T15:16:02.007Z,13.57
2018-02-05T15:18:29.921Z,12.70
2018-02-05T15:20:58.042Z,13.93
2018-02-05T15:23:25.864Z,13.57
2018-02-05T15:25:53.479Z,13.73
2018-02-05T15:28:21.381Z,14.27
2018-02-05T15:30:50.643Z,15.97
2018-02-05T15:33:19.390Z,14.53
2018-02-05T15:35:47.988Z,13.83
2018-02-05T15:38:15.959Z,15.43
2018-02-05T15:40:44.139Z,14.27
2018-02-05T15:43:12.268Z,14.83
2018-02-05T15:45:39.869Z,15.93
2018-02-05T15:48:08.767Z,15.40
2018-02-05T15:50:36.671Z,16.63
2018-02-05T15:53:05.114Z,16.37
2018-02-05T15:55:32.746Z,18.87
2018-02-05T15:58:00.687Z,15.73
2018-02-05T16:00:28.617Z,16.67
2018-02-05T16:02:56.180Z,18.07
2018-02-05T16:05:23.787Z,20.23
2018-02-05T16:07:51.380Z,24.17
2018-02-05T16:10:19.208Z,20.17
2018-02-05T16:12:46.811Z,20.00
2018-02-05T16:15:14.371Z,21.43
2018-02-05T16:17:42.014Z,21.53
2018-02-05T16:20:09.581Z,19.70
2018-02-05T16:22:37.131Z,27.07
2018-02-05T16:25:04.833Z,30.00
2018-02-05T16:27:32.667Z,25.37
2018-02-05T16:30:00.258Z,28.00
2018-02-05T16:32:27.811Z,26.70
2018-02-05T16:34:55.408Z,29.23
2018-02-05T16:37:24.799Z,26.67
2018-02-05T16:39:52.809Z,27.07
2018-02-05T16:42:21.220Z,28.97
2018-02-05T16:44:49.196Z,35.77
2018-02-05T16:47:16.791Z,34.40
2018-02-05T16:49:44.347Z,40.60
2018-02-05T16:52:12.798Z,44.87
2018-02-05T16:54:41.204Z,54.97
2018-02-05T16:57:09.144Z,50.20
2018-02-05T16:59:36.744Z,50.30
2018-02-05T17:02:04.670Z,42.80
2018-02-05T17:04:32.636Z,43.53
2018-02-05T17:07:00.966Z,42.63
2018-02-05T17:09:28.576Z,36.07
2018-02-05T17:11:58.283Z,37.43
2018-02-05T17:14:26.593Z,39.27
2018-02-05T17:16:54.668Z,37.30
2018-02-05T17:19:22.615Z,40.80
2018-02-05T17:21:51.113Z,37.37
2018-02-05T17:24:18.708Z,42.80
2018-02-05T17:26:48.236Z,37.60
2018-02-05T17:29:15.848Z,37.00
2018-02-05T17:31:43.668Z,34.33
2018-02-05T17:34:11.532Z,34.03
2018-02-05T17:36:39.792Z,33.83
2018-02-05T17:39:08.279Z,33.93
2018-02-05T17:41:35.884Z,33.97
2018-02-05T17:44:03.946Z,33.87
2018-02-05T17:46:31.505Z,40.97
2018-02-05T17:48:59.972Z,38.03
2018-02-05T17:51:27.583Z,36.80
2018-02-05T17:53:55.152Z,36.53
2018-02-05T17:56:23.160Z,42.70
2018-02-05T17:58:52.683Z,39.07
2018-02-05T18:01:20.666Z,39.70
2018-02-05T18:03:48.568Z,41.83
2018-02-05T18:06:16.896Z,39.43
2018-02-05T18:08:45.521Z,41.27
2018-02-05T18:11:14.682Z,47.23
2018-02-05T18:13:42.276Z,46.30
2018-02-05T18:16:10.815Z,46.67
2018-02-05T18:18:38.953Z,48.67
2018-02-05T18:21:06.992Z,49.40
2018-02-05T18:23:35.036Z,54.60
2018-02-05T18:26:03.312Z,57.77
2018-02-05T18:28:31.676Z,58.27
2018-02-05T18:31:00.224Z,72.13
2018-02-05T18:33:27.821Z,58.70
2018-02-05T18:35:56.815Z,58.03
2018-02-05T18:38:24.402Z,57.30
2018-02-05T18:40:52.253Z,61.63
2018-02-05T18:43:20.020Z,57.80
2018-02-05T18:45:48.190Z,63.50
2018-02-05T18:48:16.204Z,60.07
2018-02-05T18:50:45.384Z,53.77
2018-02-05T18:53:13.753Z,50.83
2018-02-05T18:55:42.806Z,50.83
2018-02-05T18:58:11.116Z,47.77
2018-02-05T19:00:49.335Z,47.90
2018-02-05T19:03:18.149Z,46.90
2018-02-05T19:05:46.592Z,44.53
2018-02-05T19:08:14.732Z,45.50
2018-02-05T19:10:44.271Z,45.00
2018-02-05T19:13:12.361Z,46.00
2018-02-05T19:15:41.455Z,45.60
2018-02-05T19:18:09.791Z,48.07
2018-02-05T19:20:38.516Z,49.33
2018-02-05T19:23:07.747Z,51.50
2018-02-05T19:25:36.916Z,52.70
2018-02-05T19:28:05.580Z,53.30
2018-02-05T19:30:33.874Z,58.20
2018-02-05T19:33:02.864Z,51.63
2018-02-05T19:35:31.349Z,47.23
2018-02-05T19:38:03.615Z,47.83
2018-02-05T19:40:32.436Z,52.67
2018-02-05T19:43:02.167Z,54.63
2018-02-05T19:45:30.688Z,53.97
2018-02-05T19:47:59.247Z,55.53
2018-02-05T19:50:28.276Z,52.17
2018-02-05T19:52:58.905Z,53.47
2018-02-05T19:55:29.148Z,51.77
2018-02-05T19:57:59.246Z,51.67
2018-02-05T20:00:27.956Z,53.97
2018-02-05T20:02:56.972Z,54.47
2018-02-05T20:05:26.839Z,49.80
2018-02-05T20:07:56.137Z,48.13
2018-02-05T20:10:24.514Z,47.37
2018-02-05T20:12:53.807Z,47.57
2018-02-05T20:15:23.025Z,46.07
2018-02-05T20:17:53.161Z,47.00
2018-02-05T20:20:23.561Z,44.17
2018-02-05T20:22:53.473Z,41.73
2018-02-05T20:25:21.739Z,40.93
2018-02-05T20:27:49.824Z,41.40
2018-02-05T20:30:17.787Z,40.53
2018-02-05T20:32:45.879Z,44.23
2018-02-05T20:35:15.889Z,41.00
2018-02-05T20:37:45.264Z,40.90
2018-02-05T20:40:14.570Z,40.80
2018-02-05T20:42:43.689Z,43.23
2018-02-05T20:45:12.955Z,40.37
2018-02-05T20:47:46.298Z,39.70
2018-02-05T20:50:14.545Z,41.07
2018-02-05T20:52:43.824Z,42.00
2018-02-05T20:55:12.426Z,42.97
2018-02-05T20:57:40.346Z,44.07
2018-02-05T21:00:08.210Z,41.53
2018-02-05T21:02:36.294Z,40.90
2018-02-05T21:05:04.187Z,42.37
2018-02-05T21:07:32.365Z,44.80
2018-02-05T21:10:00.430Z,46.13
2018-02-05T21:12:28.554Z,44.70
2018-02-05T21:14:59.190Z,42.63
2018-02-05T21:17:27.361Z,40.73
2018-02-05T21:19:55.669Z,41.80
2018-02-05T21:22:23.262Z,41.47
2018-02-05T21:24:52.851Z,40.87
2018-02-05T21:27:20.452Z,40.13
2018-02-05T21:29:48.041Z,43.77
2018-02-05T21:32:16.297Z,44.60
2018-02-05T21:34:43.867Z,40.83
2018-02-05T21:37:11.472Z,43.13
2018-02-05T21:39:39.034Z,42.50
2018-02-05T21:42:07.879Z,43.13
2018-02-05T21:44:35.467Z,43.70
2018-02-05T21:47:03.028Z,46.73
2018-02-05T21:49:30.611Z,43.00
2018-02-05T21:51:58.172Z,42.67
2018-02-05T21:54:25.777Z,40.77
2018-02-05T21:56:53.319Z,41.37
2018-02-05T21:59:20.927Z,39.93
2018-02-05T22:01:48.467Z,39.67
2018-02-05T22:04:16.468Z,39.37
2018-02-05T22:06:44.011Z,42.47
2018-02-05T22:09:11.555Z,38.30
2018-02-05T22:11:39.152Z,40.97
2018-02-05T22:14:06.763Z,42.00
2018-02-05T22:16:34.719Z,40.90
2018-02-05T22:19:02.310Z,39.53
2018-02-05T22:21:29.872Z,40.93
2018-02-05T22:23:57.425Z,42.50
2018-02-05T22:26:25.014Z,39.60
2018-02-05T22:28:52.568Z,44.03
2018-02-05T22:31:20.475Z,41.17
2018-02-05T22:33:48.428Z,40.23
2018-02-05T22:36:15.971Z,42.90
2018-02-05T22:38:44.144Z,42.97
2018-02-05T22:41:11.735Z,41.83
2018-02-05T22:43:39.324Z,45.23
2018-02-05T22:46:06.908Z,45.20
2018-02-05T22:48:34.495Z,40.90
2018-02-05T22:51:02.039Z,40.93
2018-02-05T22:53:29.652Z,44.43
2018-02-05T22:55:57.196Z,41.97
2018-02-05T22:58:24.803Z,43.47
2018-02-05T23:00:52.360Z,40.50
2018-02-05T23:03:19.955Z,41.73
2018-02-05T23:05:47.960Z,39.67
2018-02-05T23:08:15.499Z,45.87
2018-02-05T23:10:43.062Z,52.27
2018-02-05T23:13:10.657Z,50.93
2018-02-05T23:15:38.207Z,54.37
2018-02-05T23:18:05.812Z,51.77
2018-02-05T23:20:33.418Z,51.67
2018-02-05T23:23:00.964Z,51.50
2018-02-05T23:25:29.148Z,51.83
2018-02-05T23:27:56.743Z,52.10
2018-02-05T23:30:24.276Z,49.40
2018-02-05T23:32:51.876Z,54.37
2018-02-05T23:35:19.473Z,49.57
2018-02-05T23:37:47.029Z,53.87
2018-02-05T23:40:14.628Z,54.37
2018-02-05T23:42:42.880Z,53.83
2018-02-05T23:45:10.480Z,57.23
2018-02-05T23:47:38.930Z,56.33
2018-02-05T23:50:06.982Z,52.30
2018-02-05T23:52:34.527Z,51.63
2018-02-05T23:55:02.135Z,52.47
2018-02-05T23:57:29.689Z,55.63
2018-02-05T23:59:57.243Z,49.90
